createdAt,value
2023-03-15T00:08:28.088Z,1.47
2023-03-15T00:23:28.253Z,1.44
2023-03-15T00:38:28.435Z,1.37
2023-03-15T00:53:28.646Z,1.44
2023-03-15T01:08:29.253Z,1.27
2023-03-15T01:23:29.509Z,1.24
2023-03-15T01:38:30.285Z,1.11
2023-03-15T01:53:30.638Z,1.02
2023-03-15T02:08:31.317Z,0.98
2023-03-15T02:23:31.264Z,0.96
2023-03-15T02:38:31.552Z,0.88
2023-03-15T02:53:32.411Z,0.83
2023-03-15T03:08:33.524Z,0.86
2023-03-15T03:23:34.571Z,0.88
2023-03-15T03:38:34.865Z,0.83
2023-03-15T03:53:35.106Z,0.80
2023-03-15T04:08:36.203Z,0.66
2023-03-15T04:23:37.360Z,0.49
2023-03-15T04:38:37.951Z,0.50
2023-03-15T04:53:38.494Z,0.50
2023-03-15T05:08:38.830Z,0.44
2023-03-15T05:23:39.352Z,0.46
2023-03-15T05:38:40.396Z,0.61
2023-03-15T05:53:40.561Z,0.72
2023-03-15T06:08:41.430Z,1.06
2023-03-15T06:23:42.222Z,1.24
2023-03-15T06:38:42.737Z,1.44
2023-03-15T06:53:43.046Z,1.60
2023-03-15T07:08:43.308Z,1.86
2023-03-15T07:23:44.170Z,2.00
2023-03-15T07:38:44.152Z,2.27
2023-03-15T07:53:44.305Z,2.53
2023-03-15T08:08:44.504Z,2.56
2023-03-15T08:23:45.128Z,2.79
2023-03-15T08:38:46.404Z,3.28
2023-03-15T08:53:47.136Z,3.62
2023-03-15T09:08:47.627Z,3.75
2023-03-15T09:23:48.232Z,3.72
2023-03-15T09:38:50.274Z,3.91
2023-03-15T09:53:51.746Z,4.27
2023-03-15T10:08:51.676Z,4.54
2023-03-15T10:23:51.909Z,5.49
2023-03-15T10:38:52.070Z,6.31
2023-03-15T10:53:52.730Z,6.56
2023-03-15T11:08:53.653Z,6.34
2023-03-15T11:23:53.784Z,7.80
2023-03-15T11:38:53.835Z,8.33
2023-03-15T11:53:54.065Z,8.96
2023-03-15T12:08:54.274Z,8.19
2023-03-15T12:23:54.488Z,8.74
2023-03-15T12:38:55.525Z,9.43
2023-03-15T12:53:56.060Z,9.61
2023-03-15T13:08:56.934Z,8.07
2023-03-15T13:23:57.569Z,5.63
2023-03-15T13:38:58.375Z,6.73
2023-03-15T13:53:59.275Z,7.95
2023-03-15T14:08:59.200Z,8.65
2023-03-15T14:24:00.077Z,9.01
2023-03-15T14:39:00.651Z,8.95
2023-03-15T14:54:01.177Z,9.15
2023-03-15T15:09:01.436Z,8.68
2023-03-15T15:24:02.222Z,7.72
2023-03-15T15:39:04.989Z,6.94
2023-03-15T15:54:06.981Z,5.46
2023-03-15T16:09:07.430Z,4.92
2023-03-15T16:24:08.090Z,4.20
2023-03-15T16:39:08.698Z,3.87
2023-03-15T16:54:21.723Z,3.70
2023-03-15T17:09:14.338Z,3.57
2023-03-15T17:24:14.760Z,3.10
2023-03-15T17:39:16.067Z,2.78
2023-03-15T17:54:16.873Z,2.64
2023-03-15T18:09:17.065Z,2.39
2023-03-15T18:24:17.274Z,2.25
2023-03-15T18:39:17.491Z,2.18
2023-03-15T18:54:17.676Z,1.90
2023-03-15T19:09:18.118Z,1.59
2023-03-15T19:24:18.706Z,1.40
2023-03-15T19:39:19.856Z,1.18
2023-03-15T19:54:20.365Z,0.78
2023-03-15T20:09:21.102Z,0.57
2023-03-15T20:24:21.577Z,0.47
2023-03-15T20:39:22.673Z,0.41
2023-03-15T20:54:22.812Z,0.39
2023-03-15T21:09:23.889Z,0.26
2023-03-15T21:24:24.493Z,0.03
2023-03-15T21:39:25.037Z,-0.16
2023-03-15T21:54:25.187Z,-0.31
2023-03-15T22:09:25.850Z,-0.44
2023-03-15T22:24:26.451Z,-0.78
2023-03-15T22:39:27.531Z,-0.62
2023-03-15T22:54:27.681Z,-0.54
2023-03-15T23:09:28.759Z,-0.43
2023-03-15T23:24:29.020Z,-0.64
2023-03-15T23:39:30.002Z,-1.02
2023-03-15T23:54:30.155Z,-1.17
